Tofino, British Columbia

2:49 PM PST on December 17, 2014 (GMT -0800)
Tofino | Change Station
CLOSE
Current Station
Airport
Location: Tofino,
Elevation: 79 ft
Nearby Weather Stations

Elev 79 ft 49.08 °N, 125.77 °W | Updated 9 minutes ago

Mostly Cloudy
Mostly Cloudy
45 °F
Feels Like 42 °F
N
5
Wind Variable Wind from North

Today
High -- | Low -- °F
--% Chance of Precip.
Yesterday
High -- | Low -- °F
Precip. -- in
8:12 AM 4:26 PM
Waning Crescent, 19% visible
Pressure 29.83 in
Visibility 12.0 miles
Clouds Few 700 ft
Mostly Cloudy 1800 ft
Mostly Cloudy 10000 ft
Windchill 42 °F
Dew Point 45 °F
Humidity 100%
Rainfall 0.00 in
Snow Depth Not available.
UV 0 out of 12
Pollen Not available.
Air Quality Not available.
Flu Activity Not available.
SPECI CYAZ 172240Z 36004KT 12SM FEW007 BKN018 BKN100 07/07 A2983 RMK SF2SC4AC1 SLP100

More Conditions Fewer Conditions

Pressure 29.83 in
Visibility 12.0 miles
Clouds Few 700 ft
Mostly Cloudy 1800 ft
Mostly Cloudy 10000 ft
Windchill 42 °F
Dew Point 45 °F
Humidity 100%
Rainfall 0.00 in
Snow Depth Not available.
UV 0 out of 12
Pollen Not available.
Air Quality Not available.
Flu Activity Not available.
SPECI CYAZ 172240Z 36004KT 12SM FEW007 BKN018 BKN100 07/07 A2983 RMK SF2SC4AC1 SLP100

More Conditions Fewer Conditions

10-Day Weather Forecast

Almanac

Astronomy

Dec. 17, 2014 Rise Set
Actual Time
Civil Twilight
Nautical Twilight
Astronomical Twilight
Moon
Length of Visible Light
Length of Day
Tomorrow will be .
, % of the Moon is Illuminated

Today's Extremes

Country Highs Country Lows

Community

WunderPhotos

Upload Photos

1,778,813 photos uploaded!

WunderBlogs® & News

Nearby

Air Quality

  Air Quality AQ Index Pollutant
Not available.

Snow Depth

Station Depth Elevation

Earthquake Activity

City Distance Mag. Time & Date
Minimum magnitude displayed is 2.5.

Coastal Water Temperatures

Place Temperature

Nearby Weather Stations